createdAt,value
2024-03-06T00:00:48.136Z,29.82
2024-03-06T00:01:48.062Z,29.86
2024-03-06T00:02:48.020Z,29.87
2024-03-06T00:03:48.175Z,29.84
2024-03-06T00:04:48.112Z,29.85
2024-03-06T00:05:48.070Z,29.82
2024-03-06T00:06:48.040Z,29.84
2024-03-06T00:07:48.084Z,29.82
2024-03-06T00:08:48.006Z,29.83
2024-03-06T00:09:48.077Z,29.82
2024-03-06T00:10:48.048Z,29.83
2024-03-06T00:11:48.126Z,29.85
2024-03-06T00:12:48.076Z,29.83
2024-03-06T00:13:48.168Z,29.84
2024-03-06T00:14:48.193Z,29.82
2024-03-06T00:15:48.040Z,29.85
2024-03-06T00:16:48.164Z,29.82
2024-03-06T00:17:48.164Z,29.81
2024-03-06T00:18:48.065Z,29.83
2024-03-06T00:19:48.100Z,29.82
2024-03-06T00:20:48.153Z,29.83
2024-03-06T00:21:48.093Z,29.82
2024-03-06T00:22:48.172Z,29.84
2024-03-06T00:23:48.096Z,29.83
2024-03-06T00:24:48.102Z,29.83
2024-03-06T00:25:48.149Z,29.85
2024-03-06T00:26:48.108Z,29.83
2024-03-06T00:27:48.102Z,29.83
2024-03-06T00:28:48.122Z,29.83
2024-03-06T00:29:48.115Z,29.82
2024-03-06T00:30:48.129Z,29.82
2024-03-06T00:31:48.228Z,29.83
2024-03-06T00:32:48.148Z,29.85
2024-03-06T00:33:48.164Z,29.82
2024-03-06T00:34:48.205Z,29.82
2024-03-06T00:35:48.169Z,29.82
2024-03-06T00:36:48.142Z,29.84
2024-03-06T00:37:48.249Z,29.84
2024-03-06T00:38:48.180Z,29.83
2024-03-06T00:39:48.201Z,29.84
2024-03-06T00:40:48.207Z,29.84
2024-03-06T00:41:48.176Z,29.83
2024-03-06T00:42:48.217Z,29.83
2024-03-06T00:43:48.238Z,29.81
2024-03-06T00:44:48.205Z,29.82
2024-03-06T00:45:48.206Z,29.84
2024-03-06T00:46:48.249Z,29.83
2024-03-06T00:47:48.241Z,29.85
2024-03-06T00:48:48.235Z,29.83
2024-03-06T00:49:48.269Z,29.86
2024-03-06T00:50:48.208Z,29.84
2024-03-06T00:51:49.643Z,29.85
2024-03-06T00:52:48.249Z,29.83
2024-03-06T00:53:48.252Z,29.83
2024-03-06T00:54:48.279Z,29.82
2024-03-06T00:55:48.276Z,29.84
2024-03-06T00:56:48.276Z,29.85
2024-03-06T00:57:48.289Z,29.83
2024-03-06T00:58:48.380Z,29.85
2024-03-06T00:59:48.308Z,29.84
2024-03-06T01:00:48.278Z,29.83
2024-03-06T01:01:48.337Z,29.83
2024-03-06T01:02:48.330Z,29.83
2024-03-06T01:03:48.332Z,29.82
2024-03-06T01:04:48.306Z,29.84
2024-03-06T01:05:48.347Z,29.84
2024-03-06T01:06:48.354Z,29.83
2024-03-06T01:07:48.347Z,29.83
2024-03-06T01:08:48.370Z,29.83
2024-03-06T01:09:48.376Z,29.84
2024-03-06T01:10:48.339Z,29.84
2024-03-06T01:11:48.400Z,29.85
2024-03-06T01:12:48.397Z,29.84
2024-03-06T01:13:48.352Z,29.83
2024-03-06T01:14:48.336Z,29.83
2024-03-06T01:15:48.350Z,29.86
2024-03-06T01:16:48.427Z,29.84
2024-03-06T01:17:48.461Z,29.86
2024-03-06T01:18:48.457Z,29.85
2024-03-06T01:19:48.459Z,29.85
2024-03-06T01:20:48.460Z,29.83
2024-03-06T01:21:48.454Z,29.84
2024-03-06T01:22:48.514Z,29.84
2024-03-06T01:23:48.442Z,29.83
2024-03-06T01:24:48.444Z,29.84
2024-03-06T01:25:48.504Z,29.83
2024-03-06T01:26:48.491Z,29.81
2024-03-06T01:27:48.494Z,29.85
2024-03-06T01:28:48.511Z,29.83
2024-03-06T01:29:48.566Z,29.84
2024-03-06T01:30:48.637Z,29.81
2024-03-06T01:31:48.557Z,29.85
2024-03-06T01:32:48.527Z,29.82
2024-03-06T01:33:48.534Z,29.82
2024-03-06T01:34:48.684Z,29.82
2024-03-06T01:35:48.549Z,29.82
2024-03-06T01:36:48.559Z,29.83
2024-03-06T01:37:48.621Z,29.82
2024-03-06T01:38:48.678Z,29.81
2024-03-06T01:39:48.586Z,29.81
2024-03-06T01:40:48.705Z,29.81
2024-03-06T01:41:48.641Z,29.81
2024-03-06T01:42:48.614Z,29.81
2024-03-06T01:43:48.737Z,29.83
2024-03-06T01:44:48.657Z,29.79
2024-03-06T01:45:48.651Z,29.83
2024-03-06T01:46:48.728Z,29.83
2024-03-06T01:47:48.703Z,29.81
2024-03-06T01:48:48.676Z,29.81
2024-03-06T01:49:48.751Z,29.81
2024-03-06T01:50:48.728Z,29.82
2024-03-06T01:51:48.700Z,29.81
2024-03-06T01:52:48.752Z,29.82
2024-03-06T01:53:48.830Z,29.82
2024-03-06T01:54:48.857Z,29.83
2024-03-06T01:55:48.806Z,29.82
2024-03-06T01:56:48.769Z,29.81
2024-03-06T01:57:48.909Z,29.82
2024-03-06T01:58:48.893Z,29.80
2024-03-06T01:59:48.913Z,29.81
2024-03-06T02:00:48.932Z,29.80
2024-03-06T02:01:49.070Z,29.81
2024-03-06T02:02:48.885Z,29.81
2024-03-06T02:03:48.913Z,29.81
2024-03-06T02:04:48.987Z,29.80
2024-03-06T02:05:48.968Z,29.80
2024-03-06T02:06:48.989Z,29.81
2024-03-06T02:07:48.918Z,29.81
2024-03-06T02:08:48.905Z,29.83
2024-03-06T02:09:48.902Z,29.80
2024-03-06T02:10:49.112Z,29.80
2024-03-06T02:11:49.023Z,29.80
2024-03-06T02:12:48.944Z,29.81
2024-03-06T02:13:49.125Z,29.80
2024-03-06T02:14:49.032Z,29.80
2024-03-06T02:15:48.973Z,29.81
2024-03-06T02:16:49.173Z,29.82
2024-03-06T02:17:49.096Z,29.81
2024-03-06T02:18:49.094Z,29.82
2024-03-06T02:19:49.124Z,29.80
2024-03-06T02:20:49.062Z,29.81
2024-03-06T02:21:49.089Z,29.79
2024-03-06T02:22:49.103Z,29.79
2024-03-06T02:23:49.053Z,29.77
2024-03-06T02:24:49.112Z,29.78
2024-03-06T02:25:49.129Z,29.78
2024-03-06T02:26:49.113Z,29.78
2024-03-06T02:27:49.080Z,29.80
2024-03-06T02:28:49.158Z,29.79
2024-03-06T02:29:49.093Z,29.81
2024-03-06T02:30:49.142Z,29.78
2024-03-06T02:31:49.196Z,29.78
2024-03-06T02:32:49.407Z,29.77
2024-03-06T02:33:49.227Z,29.77
2024-03-06T02:34:49.200Z,29.76
2024-03-06T02:35:49.236Z,29.77
2024-03-06T02:36:49.195Z,29.77
2024-03-06T02:37:49.267Z,29.75
2024-03-06T02:38:49.231Z,29.79
2024-03-06T02:39:49.221Z,29.76
2024-03-06T02:40:49.414Z,29.78
2024-03-06T02:41:49.238Z,29.76
2024-03-06T02:42:49.245Z,29.76
2024-03-06T02:43:49.283Z,29.76
2024-03-06T02:44:49.286Z,29.76
2024-03-06T02:45:49.355Z,29.77
2024-03-06T02:46:49.319Z,29.76
2024-03-06T02:47:49.453Z,29.77
2024-03-06T02:48:49.356Z,29.77
2024-03-06T02:49:49.314Z,29.76
2024-03-06T02:50:49.368Z,29.76
2024-03-06T02:51:49.479Z,29.75
2024-03-06T02:52:49.397Z,29.76
2024-03-06T02:53:49.403Z,29.75
2024-03-06T02:54:49.500Z,29.77
2024-03-06T02:55:49.526Z,29.76
2024-03-06T02:56:49.442Z,29.75
2024-03-06T02:57:49.484Z,29.75
2024-03-06T02:58:49.527Z,29.75
2024-03-06T02:59:49.490Z,29.73
2024-03-06T03:00:49.490Z,29.74
2024-03-06T03:01:49.521Z,29.74
2024-03-06T03:02:49.557Z,29.74
2024-03-06T03:03:49.567Z,29.72
2024-03-06T03:04:49.586Z,29.72
2024-03-06T03:05:49.577Z,29.72
2024-03-06T03:06:49.538Z,29.73
2024-03-06T03:07:49.633Z,29.71
2024-03-06T03:08:49.612Z,29.72
2024-03-06T03:09:49.621Z,29.72
2024-03-06T03:10:49.693Z,29.71
2024-03-06T03:11:49.662Z,29.71
2024-03-06T03:12:49.665Z,29.73
2024-03-06T03:13:49.696Z,29.74
2024-03-06T03:14:49.689Z,29.72
2024-03-06T03:15:49.689Z,29.72
2024-03-06T03:16:49.896Z,29.75
2024-03-06T03:17:49.751Z,29.71
2024-03-06T03:18:49.766Z,29.73
2024-03-06T03:19:49.808Z,29.70
2024-03-06T03:20:49.773Z,29.71
2024-03-06T03:21:49.820Z,29.71
2024-03-06T03:22:49.791Z,29.72
2024-03-06T03:23:49.820Z,29.70
2024-03-06T03:24:49.836Z,29.71
2024-03-06T03:25:49.857Z,29.70
2024-03-06T03:26:49.857Z,29.71
2024-03-06T03:27:49.899Z,29.69
2024-03-06T03:28:49.970Z,29.70
2024-03-06T03:29:49.937Z,29.70
2024-03-06T03:30:50.010Z,29.69
2024-03-06T03:31:50.007Z,29.69
2024-03-06T03:32:50.048Z,29.68
2024-03-06T03:33:49.978Z,29.69
2024-03-06T03:34:50.037Z,29.69
2024-03-06T03:35:50.039Z,29.67
2024-03-06T03:36:50.041Z,29.67
2024-03-06T03:37:50.078Z,29.67
2024-03-06T03:38:50.064Z,29.68
2024-03-06T03:39:50.060Z,29.66
2024-03-06T03:40:50.078Z,29.66
2024-03-06T03:41:50.252Z,29.66
2024-03-06T03:42:50.147Z,29.67
2024-03-06T03:43:50.213Z,29.67
2024-03-06T03:44:50.189Z,29.67
2024-03-06T03:45:50.224Z,29.68
2024-03-06T03:46:50.216Z,29.68
2024-03-06T03:47:50.268Z,29.67
2024-03-06T03:48:50.305Z,29.66
2024-03-06T03:49:59.890Z,29.66
2024-03-06T03:50:51.342Z,29.68
2024-03-06T03:51:50.318Z,29.66
2024-03-06T03:52:50.382Z,29.66
2024-03-06T03:53:50.263Z,29.66
2024-03-06T03:54:50.265Z,29.63
2024-03-06T03:55:50.306Z,29.63
2024-03-06T03:56:50.308Z,29.62
2024-03-06T03:57:50.297Z,29.64
2024-03-06T03:58:50.380Z,29.62
2024-03-06T03:59:50.299Z,29.63
2024-03-06T04:00:50.266Z,29.64
2024-03-06T04:01:50.362Z,29.62
2024-03-06T04:02:50.297Z,29.62
2024-03-06T04:03:50.287Z,29.60
2024-03-06T04:04:50.364Z,29.61
2024-03-06T04:05:50.396Z,29.60
2024-03-06T04:06:50.463Z,29.60
2024-03-06T04:07:50.354Z,29.60
2024-03-06T04:08:50.330Z,29.57
2024-03-06T04:09:50.267Z,29.60
2024-03-06T04:10:50.353Z,29.58
2024-03-06T04:11:50.401Z,29.59
2024-03-06T04:12:50.317Z,29.57
2024-03-06T04:13:50.309Z,29.57
2024-03-06T04:14:50.311Z,29.57
2024-03-06T04:15:50.312Z,29.57
2024-03-06T04:16:50.383Z,29.56
2024-03-06T04:17:50.410Z,29.56
2024-03-06T04:18:50.284Z,29.57
2024-03-06T04:19:50.336Z,29.58
2024-03-06T04:20:50.305Z,29.55
2024-03-06T04:21:50.311Z,29.56
2024-03-06T04:22:50.327Z,29.53
2024-03-06T04:23:50.370Z,29.56
2024-03-06T04:24:50.371Z,29.55
2024-03-06T04:25:50.419Z,29.55
2024-03-06T04:26:50.444Z,29.54
2024-03-06T04:27:50.461Z,29.55
2024-03-06T04:28:50.472Z,29.54
2024-03-06T04:29:50.453Z,29.53
2024-03-06T04:30:50.529Z,29.53
2024-03-06T04:31:50.585Z,29.53
2024-03-06T04:32:50.753Z,29.53
2024-03-06T04:33:58.061Z,29.55
2024-03-06T04:34:58.054Z,29.56
2024-03-06T04:35:58.028Z,29.52
2024-03-06T04:36:58.033Z,29.52
2024-03-06T04:37:58.183Z,29.52
2024-03-06T04:38:58.040Z,29.50
2024-03-06T04:39:58.003Z,29.50
2024-03-06T04:40:58.140Z,29.51
2024-03-06T04:41:58.033Z,29.48
2024-03-06T04:42:58.019Z,29.51
2024-03-06T04:43:58.069Z,29.49
2024-03-06T04:44:58.075Z,29.49
2024-03-06T04:45:58.051Z,29.49
2024-03-06T04:46:58.103Z,29.49
2024-03-06T04:47:58.132Z,29.47
2024-03-06T04:48:58.080Z,29.45
2024-03-06T04:49:58.083Z,29.48
2024-03-06T04:50:58.088Z,29.47
2024-03-06T04:51:58.038Z,29.47
2024-03-06T04:52:58.185Z,29.46
2024-03-06T04:53:58.067Z,29.46
2024-03-06T04:54:58.083Z,29.47
2024-03-06T04:55:58.111Z,29.45
2024-03-06T04:56:58.082Z,29.46
2024-03-06T04:57:58.099Z,29.44
2024-03-06T04:58:58.063Z,29.44
2024-03-06T04:59:58.084Z,29.45
2024-03-06T05:00:58.063Z,29.43
2024-03-06T05:01:58.171Z,29.43
2024-03-06T05:58:15.513Z,29.35
2024-03-06T05:58:58.393Z,29.09
2024-03-06T05:59:58.393Z,28.95
2024-03-06T06:00:58.458Z,28.90
2024-03-06T06:01:58.410Z,28.88
2024-03-06T06:02:58.370Z,28.88
2024-03-06T06:03:58.379Z,28.76
2024-03-06T06:05:58.411Z,28.73
2024-03-06T06:06:58.394Z,28.76
2024-03-06T06:07:58.431Z,28.73
2024-03-06T06:08:58.398Z,28.77
2024-03-06T06:09:58.414Z,28.81
2024-03-06T06:10:58.507Z,28.78
2024-03-06T06:11:58.484Z,28.79
2024-03-06T06:12:58.385Z,28.74
2024-03-06T06:13:58.426Z,28.67
2024-03-06T06:14:58.377Z,28.69
2024-03-06T06:15:58.408Z,28.68
2024-03-06T06:16:58.529Z,28.69
2024-03-06T06:17:58.505Z,28.66
2024-03-06T06:18:58.408Z,28.62
2024-03-06T06:19:58.402Z,28.49
2024-03-06T06:20:58.399Z,28.41
2024-03-06T06:21:58.366Z,28.44
2024-03-06T06:22:58.416Z,28.40
2024-03-06T06:23:58.413Z,28.36
2024-03-06T06:24:58.416Z,28.27
2024-03-06T06:25:58.455Z,28.07
2024-03-06T06:26:58.398Z,27.83
2024-03-06T06:27:58.381Z,27.59
2024-03-06T06:28:58.448Z,27.63
2024-03-06T06:29:58.399Z,27.52
2024-03-06T06:30:58.410Z,27.42
2024-03-06T06:31:58.473Z,27.60
2024-03-06T06:32:58.456Z,27.73
2024-03-06T06:33:58.485Z,27.97
2024-03-06T06:34:58.443Z,28.49
2024-03-06T06:35:58.468Z,28.52
2024-03-06T06:36:58.401Z,28.70
2024-03-06T06:37:58.485Z,28.86
2024-03-06T06:38:58.411Z,28.85
2024-03-06T06:39:58.396Z,28.91
2024-03-06T06:40:58.530Z,29.09
2024-03-06T06:41:59.717Z,28.95
2024-03-06T06:42:58.442Z,29.17
2024-03-06T06:43:58.501Z,29.01
2024-03-06T06:44:58.458Z,28.93
2024-03-06T06:45:59.256Z,28.90
2024-03-06T06:46:58.733Z,28.92
2024-03-06T06:47:58.694Z,28.80
2024-03-06T06:48:58.490Z,28.84
2024-03-06T06:49:58.509Z,28.67
2024-03-06T06:50:58.478Z,28.59
2024-03-06T06:51:58.758Z,28.56
2024-03-06T06:52:58.453Z,28.46
2024-03-06T06:54:00.791Z,28.17
2024-03-06T06:54:58.676Z,28.07
2024-03-06T06:55:58.684Z,28.13
2024-03-06T06:56:58.767Z,28.06
2024-03-06T06:57:58.721Z,27.99
2024-03-06T06:58:58.970Z,27.95
2024-03-06T06:59:58.866Z,27.81
2024-03-06T07:00:59.739Z,27.84
2024-03-06T07:01:59.020Z,27.81
2024-03-06T07:02:58.999Z,27.79
2024-03-06T07:03:59.097Z,27.74
2024-03-06T07:04:59.161Z,27.72
2024-03-06T07:05:59.187Z,27.71
2024-03-06T07:06:59.747Z,27.73
2024-03-06T07:07:59.407Z,27.71
2024-03-06T07:08:59.489Z,27.64
2024-03-06T07:09:59.591Z,27.64
2024-03-06T07:10:59.845Z,27.65
2024-03-06T07:11:59.731Z,27.70
2024-03-06T07:12:59.849Z,27.72
2024-03-06T07:13:59.783Z,27.68
2024-03-06T07:15:00.260Z,27.66
2024-03-06T07:15:59.995Z,27.63
2024-03-06T07:17:00.280Z,27.74
2024-03-06T07:18:00.183Z,27.73
2024-03-06T07:19:00.201Z,27.72
2024-03-06T07:20:00.411Z,27.81
2024-03-06T07:21:00.341Z,27.74
2024-03-06T07:22:00.787Z,27.87
2024-03-06T07:23:00.484Z,27.93
2024-03-06T07:24:00.561Z,27.96
2024-03-06T07:25:00.590Z,27.90
2024-03-06T07:26:00.673Z,27.83
2024-03-06T07:27:01.024Z,27.82
2024-03-06T07:28:00.747Z,27.81
2024-03-06T07:29:00.878Z,27.80
2024-03-06T07:30:00.913Z,27.74
2024-03-06T07:31:01.805Z,27.63
2024-03-06T07:32:01.371Z,27.71
2024-03-06T07:33:01.287Z,27.65
2024-03-06T07:34:02.549Z,27.64
2024-03-06T07:35:01.415Z,27.74
2024-03-06T07:36:01.372Z,27.72
2024-03-06T07:37:03.160Z,27.53
2024-03-06T07:38:01.735Z,27.64
2024-03-06T07:39:01.394Z,28.11
2024-03-06T07:40:01.548Z,28.44
2024-03-06T07:41:01.723Z,28.17
2024-03-06T07:42:03.001Z,28.24
2024-03-06T07:43:01.750Z,28.65
2024-03-06T07:44:01.450Z,28.83
2024-03-06T07:45:02.786Z,28.59
2024-03-06T07:46:01.453Z,28.51
2024-03-06T07:47:01.710Z,28.23
2024-03-06T07:48:01.935Z,28.29
2024-03-06T07:49:01.355Z,28.32
2024-03-06T07:50:01.484Z,28.31
2024-03-06T07:51:01.346Z,28.10
2024-03-06T07:52:01.377Z,27.94
2024-03-06T07:53:01.827Z,28.06
2024-03-06T07:54:02.265Z,28.00
2024-03-06T07:55:01.517Z,27.74
2024-03-06T07:56:02.277Z,27.58
2024-03-06T07:57:04.611Z,27.58
2024-03-06T07:58:01.855Z,27.64
2024-03-06T07:59:01.677Z,27.69
2024-03-06T08:00:04.553Z,27.51
2024-03-06T08:01:01.616Z,27.24
2024-03-06T08:02:02.938Z,27.23
2024-03-06T08:03:01.580Z,27.30
2024-03-06T08:04:01.640Z,27.26
2024-03-06T08:05:01.664Z,27.23
2024-03-06T08:06:01.601Z,27.21
2024-03-06T08:07:01.718Z,27.34
2024-03-06T08:08:01.773Z,27.28
2024-03-06T08:09:03.438Z,27.19
2024-03-06T08:10:02.245Z,27.12
2024-03-06T08:11:02.130Z,27.17
2024-03-06T08:12:01.617Z,27.14
2024-03-06T08:13:01.669Z,27.15
2024-03-06T08:14:02.152Z,27.17
2024-03-06T08:15:02.729Z,27.19
2024-03-06T08:16:02.367Z,27.14
2024-03-06T08:17:01.859Z,27.13
2024-03-06T08:18:02.849Z,27.21
2024-03-06T08:19:01.954Z,27.12
2024-03-06T08:20:01.962Z,27.30
2024-03-06T08:21:02.867Z,27.26
2024-03-06T08:22:06.974Z,27.22
2024-03-06T08:23:02.752Z,27.14
2024-03-06T08:24:02.349Z,27.13
2024-03-06T08:25:02.835Z,27.07
2024-03-06T08:26:02.410Z,27.10
2024-03-06T08:27:03.519Z,27.03
2024-03-06T08:28:02.980Z,26.96
2024-03-06T08:29:06.507Z,26.84
2024-03-06T08:30:02.157Z,26.95
2024-03-06T08:31:02.272Z,26.71
2024-03-06T08:32:03.146Z,26.89
2024-03-06T08:33:02.609Z,26.96
2024-03-06T08:34:02.402Z,27.05
2024-03-06T08:35:02.315Z,27.50
2024-03-06T08:36:02.811Z,27.80
2024-03-06T08:37:02.188Z,27.87
2024-03-06T08:38:02.264Z,28.01
2024-03-06T08:39:02.191Z,27.98
2024-03-06T08:40:02.252Z,28.07
2024-03-06T08:41:02.325Z,27.68
2024-03-06T08:42:02.210Z,27.28
2024-03-06T08:43:02.278Z,26.98
2024-03-06T08:44:02.215Z,26.86
2024-03-06T08:45:02.337Z,26.67
2024-03-06T08:46:02.355Z,26.61
2024-03-06T08:47:02.397Z,26.47
2024-03-06T08:48:04.018Z,26.51
2024-03-06T08:49:07.010Z,26.54
2024-03-06T08:50:03.922Z,26.64
2024-03-06T08:51:03.308Z,26.69
2024-03-06T08:52:03.865Z,26.75
2024-03-06T08:53:02.417Z,26.85
2024-03-06T08:54:03.470Z,26.82
2024-03-06T08:55:03.332Z,26.78
2024-03-06T08:56:02.982Z,26.77
2024-03-06T08:57:02.522Z,26.86
2024-03-06T08:58:02.882Z,26.87
2024-03-06T08:59:04.144Z,26.79
2024-03-06T09:00:04.797Z,26.92
2024-03-06T09:01:05.107Z,26.91
2024-03-06T09:02:07.138Z,26.86
2024-03-06T09:03:02.392Z,26.86
2024-03-06T09:04:02.460Z,26.85
2024-03-06T09:05:02.980Z,26.90
2024-03-06T09:06:02.515Z,26.85
2024-03-06T09:07:02.491Z,26.80
2024-03-06T09:08:03.499Z,27.07
2024-03-06T09:09:07.940Z,27.04
2024-03-06T09:10:04.417Z,27.14
2024-03-06T09:11:03.409Z,27.06
2024-03-06T09:12:10.423Z,27.03
2024-03-06T09:13:02.823Z,27.04
2024-03-06T09:14:05.707Z,27.06
2024-03-06T09:15:02.391Z,27.11
2024-03-06T09:16:02.491Z,27.06
2024-03-06T09:17:04.184Z,27.15
2024-03-06T09:18:03.540Z,27.21
2024-03-06T09:19:02.824Z,27.19
2024-03-06T09:20:09.665Z,27.17
2024-03-06T09:21:05.691Z,27.12
2024-03-06T09:22:02.433Z,27.08
2024-03-06T09:23:02.465Z,27.16
2024-03-06T09:24:03.490Z,27.21
2024-03-06T09:25:02.776Z,27.24
2024-03-06T09:26:04.128Z,27.39
2024-03-06T09:27:02.831Z,27.46
2024-03-06T09:28:02.422Z,27.60
2024-03-06T09:29:02.498Z,27.95
2024-03-06T09:30:02.411Z,28.10
2024-03-06T09:31:02.457Z,28.11
2024-03-06T09:32:02.480Z,28.36
2024-03-06T09:33:02.586Z,28.68
2024-03-06T09:34:02.399Z,29.40
2024-03-06T09:35:02.547Z,29.67
2024-03-06T09:36:03.821Z,29.94
2024-03-06T09:37:02.900Z,30.69
2024-03-06T09:38:02.618Z,30.05
2024-03-06T09:39:02.460Z,29.69
2024-03-06T09:40:02.540Z,29.42
2024-03-06T09:41:04.846Z,29.49
2024-03-06T09:42:04.117Z,29.54
2024-03-06T09:43:03.965Z,29.66
2024-03-06T09:44:02.706Z,29.58
2024-03-06T09:45:06.031Z,29.43
2024-03-06T09:46:03.225Z,29.25
2024-03-06T09:47:02.514Z,29.24
2024-03-06T09:48:02.529Z,28.99
2024-03-06T09:49:02.476Z,29.09
2024-03-06T09:50:03.776Z,28.97
2024-03-06T09:51:04.252Z,28.74
2024-03-06T09:52:03.054Z,28.64
2024-03-06T09:53:03.040Z,28.62
2024-03-06T09:54:02.440Z,28.55
2024-03-06T09:55:03.284Z,28.37
2024-03-06T09:56:02.507Z,28.31
2024-03-06T09:57:02.674Z,28.22
2024-03-06T09:58:05.366Z,28.22
2024-03-06T09:59:02.693Z,28.18
2024-03-06T10:00:03.172Z,28.13
2024-03-06T10:01:02.611Z,28.08
2024-03-06T10:02:02.893Z,28.02
2024-03-06T10:03:02.637Z,27.91
2024-03-06T10:04:02.924Z,27.88
2024-03-06T10:05:08.396Z,27.85
2024-03-06T10:06:06.473Z,27.85
2024-03-06T10:07:03.998Z,27.82
2024-03-06T10:08:04.967Z,27.75
2024-03-06T10:09:02.827Z,27.73
2024-03-06T10:10:04.047Z,27.71
2024-03-06T10:11:03.959Z,27.65
2024-03-06T10:12:07.147Z,27.68
2024-03-06T10:13:03.052Z,27.58
2024-03-06T10:14:03.066Z,27.61
2024-03-06T10:15:09.358Z,27.67
2024-03-06T10:16:02.910Z,27.62
2024-03-06T10:17:07.044Z,27.56
2024-03-06T10:18:10.157Z,27.34
2024-03-06T10:19:03.101Z,27.35
2024-03-06T10:20:02.909Z,27.31
2024-03-06T10:21:02.852Z,27.18
2024-03-06T10:22:06.287Z,27.13
2024-03-06T10:23:04.431Z,27.14
2024-03-06T10:24:06.164Z,27.15
2024-03-06T10:25:06.873Z,27.12
2024-03-06T10:26:03.450Z,27.11
2024-03-06T10:27:07.185Z,27.23
2024-03-06T10:28:04.230Z,27.23
2024-03-06T10:29:07.664Z,27.23
2024-03-06T10:30:06.550Z,27.38
2024-03-06T10:31:02.875Z,27.43
2024-03-06T10:32:02.956Z,27.31
2024-03-06T10:33:03.104Z,27.30
2024-03-06T10:34:03.301Z,27.52
2024-03-06T10:35:03.043Z,27.61
2024-03-06T10:36:05.128Z,27.72
2024-03-06T10:37:03.159Z,27.74
2024-03-06T10:38:03.141Z,27.76
2024-03-06T10:39:03.218Z,27.65
2024-03-06T10:40:03.231Z,27.47
2024-03-06T10:41:03.171Z,27.38
2024-03-06T10:42:03.249Z,27.37
2024-03-06T10:43:03.374Z,27.35
2024-03-06T10:44:03.339Z,27.56
2024-03-06T10:45:03.288Z,27.60
2024-03-06T10:46:03.314Z,27.63
2024-03-06T10:47:03.346Z,27.52
2024-03-06T10:48:04.528Z,27.60
2024-03-06T10:49:04.466Z,27.61
2024-03-06T10:50:03.426Z,27.61
2024-03-06T10:51:04.025Z,27.63
2024-03-06T10:52:07.803Z,27.64
2024-03-06T10:53:03.449Z,27.65
2024-03-06T10:54:03.913Z,27.63
2024-03-06T10:55:03.385Z,27.61
2024-03-06T10:56:03.597Z,27.61
2024-03-06T10:57:03.398Z,27.56
2024-03-06T10:58:03.408Z,27.53
2024-03-06T10:59:04.272Z,27.54
2024-03-06T11:00:05.844Z,27.52
2024-03-06T11:01:03.357Z,27.52
2024-03-06T11:02:03.616Z,27.52
2024-03-06T11:03:03.405Z,27.46
2024-03-06T11:04:03.449Z,27.48
2024-03-06T11:05:04.396Z,27.53
2024-03-06T11:06:05.205Z,27.55
2024-03-06T11:07:04.582Z,27.60
2024-03-06T11:08:03.466Z,27.64
2024-03-06T11:09:03.434Z,27.65
2024-03-06T11:10:03.883Z,27.66
2024-03-06T11:11:04.520Z,27.73
2024-03-06T11:12:03.368Z,27.70
2024-03-06T11:13:03.325Z,27.66
2024-03-06T11:14:07.111Z,27.65
2024-03-06T11:15:03.420Z,27.68
2024-03-06T11:16:03.326Z,27.66
2024-03-06T11:17:05.294Z,27.73
2024-03-06T11:18:04.258Z,27.71
2024-03-06T11:19:04.479Z,27.68
2024-03-06T11:20:03.530Z,27.65
2024-03-06T11:21:03.418Z,27.66
2024-03-06T11:22:03.341Z,27.72
2024-03-06T11:23:03.556Z,27.72
2024-03-06T11:24:04.985Z,27.77
2024-03-06T11:25:03.405Z,27.75
2024-03-06T11:26:03.519Z,27.71
2024-03-06T11:27:03.524Z,27.76
2024-03-06T11:28:04.110Z,27.91
2024-03-06T11:29:03.944Z,27.99
2024-03-06T11:30:04.800Z,28.26
2024-03-06T11:31:03.728Z,28.19
2024-03-06T11:32:03.994Z,28.23
2024-03-06T11:33:03.925Z,28.18
2024-03-06T11:34:03.936Z,28.21
2024-03-06T11:35:03.771Z,28.23
2024-03-06T11:36:05.077Z,28.25
2024-03-06T11:37:05.725Z,28.22
2024-03-06T11:38:04.490Z,28.23
2024-03-06T11:39:04.900Z,28.18
2024-03-06T11:40:04.052Z,28.19
2024-03-06T11:41:04.106Z,28.15
2024-03-06T11:42:04.118Z,28.18
2024-03-06T11:43:04.193Z,28.16
2024-03-06T11:44:04.287Z,28.15
2024-03-06T11:45:04.334Z,28.15
2024-03-06T11:46:04.291Z,28.10
2024-03-06T11:47:04.476Z,28.09
2024-03-06T11:48:05.416Z,28.07
2024-03-06T11:49:04.388Z,28.06
2024-03-06T11:50:04.488Z,28.07
2024-03-06T11:51:04.494Z,28.07
2024-03-06T11:52:04.906Z,28.07
2024-03-06T11:53:04.593Z,28.05
2024-03-06T11:54:04.890Z,28.06
2024-03-06T11:55:04.826Z,28.06
2024-03-06T11:56:04.800Z,28.05
2024-03-06T11:57:04.710Z,28.08
2024-03-06T11:58:04.799Z,28.05
2024-03-06T11:59:04.940Z,28.08
2024-03-06T12:00:04.869Z,28.09
2024-03-06T12:01:04.900Z,28.10
2024-03-06T12:02:04.957Z,28.13
2024-03-06T12:03:04.941Z,28.19
2024-03-06T12:04:05.369Z,28.15
2024-03-06T12:05:05.148Z,28.13
2024-03-06T12:06:05.164Z,28.14
2024-03-06T12:07:05.109Z,28.06
2024-03-06T12:08:05.357Z,28.17
2024-03-06T12:09:05.330Z,28.18
2024-03-06T12:10:05.299Z,28.19
2024-03-06T12:11:05.628Z,28.15
2024-03-06T12:12:05.373Z,28.22
2024-03-06T12:13:05.264Z,28.29
2024-03-06T12:14:05.429Z,28.27
2024-03-06T12:15:05.357Z,28.21
2024-03-06T12:16:05.369Z,28.22
2024-03-06T12:17:05.771Z,28.30
2024-03-06T12:18:05.545Z,28.43
2024-03-06T12:19:05.469Z,28.47
2024-03-06T12:20:05.517Z,28.45
2024-03-06T12:21:05.941Z,28.67
2024-03-06T12:22:05.730Z,28.72
2024-03-06T12:23:05.627Z,28.82
2024-03-06T12:24:05.648Z,28.81
2024-03-06T12:25:05.874Z,28.87
2024-03-06T12:26:06.743Z,28.77
2024-03-06T12:27:05.675Z,28.83
2024-03-06T12:28:05.675Z,28.33
2024-03-06T12:29:05.816Z,28.52
2024-03-06T12:30:05.775Z,29.51
2024-03-06T12:31:05.777Z,29.42
2024-03-06T12:32:05.932Z,29.34
2024-03-06T12:33:06.046Z,29.44
2024-03-06T12:34:06.150Z,29.38
2024-03-06T12:35:06.057Z,29.30
2024-03-06T12:36:06.111Z,29.25
2024-03-06T12:37:06.097Z,29.18
2024-03-06T12:38:06.114Z,29.08
2024-03-06T12:39:06.215Z,29.03
2024-03-06T12:40:06.356Z,29.00
2024-03-06T12:41:06.258Z,28.90
2024-03-06T12:42:06.241Z,28.85
2024-03-06T12:43:06.249Z,28.84
2024-03-06T12:44:06.291Z,28.75
2024-03-06T12:45:06.309Z,28.73
2024-03-06T12:46:06.366Z,28.71
2024-03-06T12:47:06.343Z,28.62
2024-03-06T12:48:06.399Z,28.65
2024-03-06T12:49:06.294Z,28.55
2024-03-06T12:50:06.329Z,28.54
2024-03-06T12:51:06.833Z,28.56
2024-03-06T12:52:06.588Z,28.43
2024-03-06T12:53:06.472Z,28.44
2024-03-06T12:54:06.366Z,28.49
2024-03-06T12:55:06.429Z,28.42
2024-03-06T12:56:06.466Z,28.42
2024-03-06T12:57:06.528Z,28.44
2024-03-06T12:58:06.489Z,28.40
2024-03-06T12:59:06.486Z,28.62
2024-03-06T13:00:06.508Z,29.00
2024-03-06T13:01:06.591Z,29.03
2024-03-06T13:02:06.643Z,28.69
2024-03-06T13:03:06.593Z,28.67
2024-03-06T13:04:07.626Z,28.58
2024-03-06T13:05:06.705Z,28.54
2024-03-06T13:06:06.686Z,28.57
2024-03-06T13:07:06.649Z,28.58
2024-03-06T13:08:06.766Z,28.63
2024-03-06T13:09:06.865Z,28.57
2024-03-06T13:10:06.844Z,28.46
2024-03-06T13:11:06.940Z,28.40
2024-03-06T13:12:07.043Z,28.35
2024-03-06T13:13:07.121Z,28.32
2024-03-06T13:14:07.094Z,28.30
2024-03-06T13:15:07.179Z,28.27
2024-03-06T13:16:08.671Z,28.22
2024-03-06T13:17:07.295Z,28.22
2024-03-06T13:18:07.446Z,28.22
2024-03-06T13:19:07.200Z,28.21
2024-03-06T13:20:07.273Z,28.20
2024-03-06T13:21:07.224Z,28.22
2024-03-06T13:22:07.326Z,28.17
2024-03-06T13:23:07.265Z,28.19
2024-03-06T13:24:07.248Z,28.18
2024-03-06T13:25:07.253Z,28.17
2024-03-06T13:26:07.275Z,28.17
2024-03-06T13:27:07.279Z,28.15
2024-03-06T13:28:07.256Z,28.17
2024-03-06T13:29:07.283Z,28.13
2024-03-06T13:30:07.242Z,28.14
2024-03-06T13:31:07.277Z,28.14
2024-03-06T13:32:07.241Z,28.13
2024-03-06T13:33:07.327Z,28.12
2024-03-06T13:34:07.265Z,28.12
2024-03-06T13:35:07.444Z,28.11
2024-03-06T13:36:07.289Z,28.11
2024-03-06T13:37:07.248Z,28.10
2024-03-06T13:38:07.383Z,28.08
2024-03-06T13:39:07.231Z,28.08
2024-03-06T13:40:07.255Z,28.09
2024-03-06T13:41:07.303Z,28.07
2024-03-06T13:42:07.258Z,28.04
2024-03-06T13:43:07.262Z,28.00
2024-03-06T13:44:07.313Z,27.99
2024-03-06T13:45:07.292Z,28.00
2024-03-06T13:46:07.289Z,28.02
2024-03-06T13:47:07.282Z,27.99
2024-03-06T13:48:07.327Z,27.98
2024-03-06T13:49:07.242Z,27.97